Time;durP1;ratioP1;P1;durP2;ratioP2;P2;SDS_P1;SDS_P2;PMS_P1;PMS_P2;Temp;Humidity;BMP_temperature;BMP_pressure;BME280_temperature;BME280_humidity;BME280_pressure;Samples;Min_cycle;Max_cycle;Signal;HPM_P1;HPM_P2
2022/11/03 00:01:10;;;;;;;1.98;1.77;;;;;;;0.78;62.15;99752.66;5032972;28;20095;-62
2022/11/03 00:03:36;;;;;;;2.08;1.85;;;;;;;0.95;61.88;99779.16;5032750;28;20371;-62
2022/11/03 00:06:04;;;;;;;2.20;2.00;;;;;;;1.02;61.96;99789.47;5033074;28;20061;-62
2022/11/03 00:08:41;;;;;;;2.35;2.15;;;;;;;1.11;62.37;99800.50;5032560;28;20124;-61
2022/11/03 00:11:12;;;;;;;2.20;2.00;;;;;;;1.09;61.93;99804.09;5034311;28;20065;-60
2022/11/03 00:13:40;;;;;;;2.42;2.22;;;;;;;0.96;62.30;99794.03;5051867;28;20036;-62
2022/11/03 00:16:08;;;;;;;2.10;2.00;;;;;;;0.94;62.26;99806.44;5045447;28;20464;-56
2022/11/03 00:18:34;;;;;;;2.15;1.95;;;;;;;0.80;62.53;99777.16;5050361;28;20043;-56
2022/11/03 00:21:02;;;;;;;2.58;2.38;;;;;;;0.97;62.32;99803.69;5052191;28;20040;-60
2022/11/03 00:23:29;;;;;;;2.60;2.28;;;;;;;0.91;62.04;99803.09;5051519;28;20029;-57
2022/11/03 00:26:02;;;;;;;2.33;2.13;;;;;;;0.86;62.72;99803.28;5052846;28;20029;-59
2022/11/03 00:28:30;;;;;;;2.60;2.40;;;;;;;0.80;62.41;99796.47;5052298;28;20111;-61
2022/11/03 00:30:55;;;;;;;2.92;2.00;;;;;;;0.82;62.98;99801.69;5038204;28;20056;-59
2022/11/03 00:33:25;;;;;;;2.33;2.13;;;;;;;0.79;62.42;99804.44;5032570;28;20072;-59
2022/11/03 00:35:55;;;;;;;2.53;2.30;;;;;;;0.74;62.98;99809.06;5031854;28;20058;-59
2022/11/03 00:38:21;;;;;;;2.38;2.17;;;;;;;0.66;62.60;99802.28;5040089;28;20075;-57
2022/11/03 00:40:54;;;;;;;2.38;2.17;;;;;;;0.76;63.08;99809.84;5056490;28;20493;-60
2022/11/03 00:43:24;;;;;;;2.47;1.88;;;;;;;0.74;63.14;99802.00;5032196;28;20337;-61
2022/11/03 00:45:50;;;;;;;2.75;2.10;;;;;;;0.66;62.51;99804.94;5032840;28;20179;-60
2022/11/03 00:48:33;;;;;;;2.60;2.40;;;;;;;0.74;62.79;99814.31;5032228;28;20500;-59
2022/11/03 00:51:14;;;;;;;2.08;1.92;;;;;;;0.80;62.92;99814.91;5032291;28;20026;-60
2022/11/03 00:53:54;;;;;;;2.08;1.80;;;;;;;0.73;63.06;99807.34;5032722;28;20076;-59
2022/11/03 00:56:26;;;;;;;2.15;1.95;;;;;;;0.74;63.11;99814.31;5049651;28;20029;-58
2022/11/03 00:58:53;;;;;;;2.55;2.00;;;;;;;0.53;62.98;99769.47;5051997;28;20041;-59
2022/11/03 01:01:24;;;;;;;2.83;2.25;;;;;;;0.81;62.77;99810.50;5049912;28;20037;-59
2022/11/03 01:06:50;;;;;;;2.35;2.15;;;;;;;0.99;61.98;99819.44;5050473;28;20133;-58
2022/11/03 01:09:24;;;;;;;2.40;2.20;;;;;;;0.91;61.73;99817.13;5036786;28;20033;-58
2022/11/03 01:12:02;;;;;;;3.20;2.10;;;;;;;0.76;62.62;99817.75;5051931;28;20451;-60
2022/11/03 01:14:32;;;;;;;4.53;2.35;;;;;;;0.75;62.57;99823.94;5034010;28;20041;-60
2022/11/03 01:16:58;;;;;;;2.38;2.13;;;;;;;0.67;62.64;99821.59;5032022;28;20083;-58
2022/11/03 01:19:24;;;;;;;2.80;2.17;;;;;;;0.62;62.94;99832.31;5032013;28;20025;-57
2022/11/03 01:21:50;;;;;;;2.30;2.10;;;;;;;0.65;63.07;99834.84;5041514;28;20029;-61
2022/11/03 01:24:16;;;;;;;3.38;2.20;;;;;;;0.69;62.89;99838.22;5051575;28;20439;-58
2022/11/03 01:26:41;;;;;;;2.22;1.80;;;;;;;0.56;62.86;99814.13;5051145;28;20062;-60
2022/11/03 01:29:07;;;;;;;1.65;1.55;;;;;;;0.68;62.65;99832.06;5051856;28;20032;-60
2022/11/03 01:31:32;;;;;;;2.20;1.70;;;;;;;0.65;62.30;99837.47;5041281;28;20134;-59
2022/11/03 01:33:58;;;;;;;1.70;1.58;;;;;;;0.65;62.47;99849.81;5039706;28;20124;-61
2022/11/03 01:36:24;;;;;;;1.63;1.52;;;;;;;0.55;62.13;99838.75;5051842;28;20166;-57
2022/11/03 01:38:50;;;;;;;1.63;1.52;;;;;;;0.60;62.85;99841.19;5051798;28;20364;-58
2022/11/03 01:41:19;;;;;;;1.65;1.52;;;;;;;0.66;62.41;99839.19;5051554;28;20055;-62
2022/11/03 01:44:05;;;;;;;1.67;1.27;;;;;;;0.71;62.23;99841.66;5066945;28;20148;-61
2022/11/03 01:46:32;;;;;;;1.17;1.08;;;;;;;0.65;62.52;99826.09;5027881;28;20052;-62
2022/11/03 01:49:07;;;;;;;2.03;1.35;;;;;;;0.71;62.51;99842.50;5036304;28;20031;-57
2022/11/03 01:51:35;;;;;;;1.50;1.10;;;;;;;0.68;62.36;99831.22;5051808;28;20107;-59
2022/11/03 01:54:07;;;;;;;1.13;1.02;;;;;;;0.74;62.31;99841.53;5058789;28;20491;-59
2022/11/03 01:56:37;;;;;;;1.58;1.25;;;;;;;0.67;62.45;99843.53;5035292;28;20409;-59
2022/11/03 01:59:03;;;;;;;1.02;1.00;;;;;;;0.57;62.91;99844.81;5042051;28;20033;-61
2022/11/03 02:01:29;;;;;;;1.80;0.90;;;;;;;0.53;62.91;99849.34;5054576;28;20036;-58
2022/11/03 02:04:01;;;;;;;1.17;1.08;;;;;;;0.52;63.16;99837.09;5035102;28;20041;-58
2022/11/03 02:06:28;;;;;;;1.00;0.90;;;;;;;0.54;62.77;99840.53;5034272;28;20045;-60
2022/11/03 02:09:06;;;;;;;2.03;1.20;;;;;;;0.55;63.25;99836.13;5035031;28;20037;-61
2022/11/03 02:14:17;;;;;;;;;;;;;;;0.69;62.34;99825.88;5035323;28;20171;-61
2022/11/03 02:16:48;;;;;;;1.30;1.20;;;;;;;0.49;62.58;99831.94;5049307;28;20015;-63
2022/11/03 02:19:30;;;;;;;1.15;1.05;;;;;;;0.50;62.75;99833.66;5035341;28;20466;-61
2022/11/03 02:21:59;;;;;;;1.50;1.40;;;;;;;0.47;62.91;99827.63;5050854;28;20072;-58
2022/11/03 02:24:49;;;;;;;3.10;1.33;;;;;;;0.49;63.27;99831.94;5034644;28;20098;-59
2022/11/03 02:27:15;;;;;;;3.95;1.65;;;;;;;0.31;62.74;99811.56;5044595;28;20175;-57
2022/11/03 02:29:40;;;;;;;2.33;1.20;;;;;;;0.30;63.17;99831.81;5042529;28;20108;-58
2022/11/03 02:32:16;;;;;;;1.38;1.20;;;;;;;0.30;62.92;99823.91;5054824;28;20137;-55
2022/11/03 02:34:50;;;;;;;2.35;1.38;;;;;;;0.30;63.22;99823.91;5051226;28;20037;-59
2022/11/03 02:37:20;;;;;;;1.60;1.50;;;;;;;0.31;63.47;99837.91;5037414;28;20041;-59
2022/11/03 02:39:51;;;;;;;4.78;1.92;;;;;;;0.33;63.33;99841.34;5054889;28;20033;-58
2022/11/03 02:42:20;;;;;;;1.40;1.30;;;;;;;0.34;62.98;99843.94;5053598;28;20033;-65
2022/11/03 02:44:47;;;;;;;1.65;1.50;;;;;;;0.37;62.84;99843.81;5034670;28;20037;-57
2022/11/03 02:47:14;;;;;;;1.40;1.30;;;;;;;0.37;62.57;99827.16;5033513;28;20041;-60
2022/11/03 02:49:48;;;;;;;2.28;1.13;;;;;;;0.46;62.31;99847.00;5033907;28;20049;-57
2022/11/03 02:52:37;;;;;;;1.88;1.00;;;;;;;0.50;62.23;99843.34;5048520;28;20371;-56
2022/11/03 02:55:19;;;;;;;0.93;0.93;;;;;;;0.41;62.26;99831.41;5034190;28;20033;-60
2022/11/03 02:57:55;;;;;;;1.10;0.93;;;;;;;0.32;62.94;99835.22;5034442;28;20037;-58
2022/11/03 03:00:21;;;;;;;2.35;1.25;;;;;;;0.06;62.76;99792.31;5041095;28;20089;-57
2022/11/03 03:02:52;;;;;;;3.28;1.25;;;;;;;0.30;62.82;99834.44;5054110;28;20463;-52
2022/11/03 03:05:20;;;;;;;1.77;1.58;;;;;;;0.30;62.63;99820.41;5054027;28;20139;-58
2022/11/03 03:07:51;;;;;;;1.33;1.10;;;;;;;0.42;62.44;99820.78;5054155;28;20021;-56
2022/11/03 03:10:20;;;;;;;1.80;1.70;;;;;;;0.42;62.43;99833.94;5054509;28;20029;-55
2022/11/03 03:12:49;;;;;;;5.55;2.00;;;;;;;0.39;62.72;99834.06;5051748;28;20112;-54
2022/11/03 03:15:17;;;;;;;5.47;3.60;;;;;;;0.42;62.50;99831.31;5053239;28;20463;-57
2022/11/03 03:17:57;;;;;;;6.32;4.20;;;;;;;0.51;63.02;99831.91;5053551;28;20044;-55
2022/11/03 03:20:30;;;;;;;9.10;4.22;;;;;;;0.51;62.69;99829.25;5053611;28;20028;-55
2022/11/03 03:23:12;;;;;;;4.10;3.30;;;;;;;0.51;62.66;99838.00;5061881;28;20399;-53
2022/11/03 03:25:57;;;;;;;3.05;2.45;;;;;;;0.51;62.36;99840.66;5033448;28;20029;-59
2022/11/03 03:28:32;;;;;;;4.63;3.57;;;;;;;0.40;61.94;99825.25;5037885;28;20029;-58
2022/11/03 03:31:01;;;;;;;6.38;3.50;;;;;;;0.34;62.29;99832.53;5046563;28;20025;-58
2022/11/03 03:33:28;;;;;;;6.15;3.72;;;;;;;0.40;62.46;99841.06;5033337;28;20411;-57
2022/11/03 03:35:56;;;;;;;5.25;3.33;;;;;;;0.37;62.59;99833.28;5033535;28;20456;-54
2022/11/03 03:38:34;;;;;;;5.00;2.55;;;;;;;0.43;62.02;99838.31;5033396;28;20025;-54
2022/11/03 03:41:01;;;;;;;4.82;2.80;;;;;;;0.36;62.29;99842.09;5033665;28;20033;-55
2022/11/03 03:43:28;;;;;;;2.92;2.33;;;;;;;0.28;62.91;99838.91;5032957;28;20053;-56
2022/11/03 03:45:57;;;;;;;2.63;2.40;;;;;;;0.24;62.72;99834.66;5041959;28;20075;-54
2022/11/03 03:48:22;;;;;;;4.50;2.38;;;;;;;0.17;62.95;99826.16;5053342;28;20040;-53
2022/11/03 03:50:49;;;;;;;4.63;2.28;;;;;;;0.21;62.72;99843.53;5053106;28;20032;-58
2022/11/03 03:53:17;;;;;;;3.40;2.10;;;;;;;0.26;63.06;99840.75;5042512;28;20060;-57
2022/11/03 03:55:45;;;;;;;2.90;1.92;;;;;;;0.28;62.83;99837.13;5033063;28;20057;-55
2022/11/03 03:58:12;;;;;;;3.67;2.00;;;;;;;0.26;62.97;99836.31;5033247;28;20116;-57
2022/11/03 04:00:38;;;;;;;2.63;1.70;;;;;;;0.07;62.68;99803.69;5046235;28;20451;-56
2022/11/03 04:03:04;;;;;;;3.28;2.10;;;;;;;0.29;62.44;99840.63;5051995;28;20041;-59
2022/11/03 04:05:30;;;;;;;6.85;2.47;;;;;;;0.28;62.27;99834.47;5052148;28;20098;-60
2022/11/03 04:07:57;;;;;;;7.95;3.00;;;;;;;0.21;62.43;99832.13;5047692;28;20124;-52
2022/11/03 04:10:23;;;;;;;11.75;4.35;;;;;;;0.27;62.99;99837.19;5052689;28;20106;-62
2022/11/03 04:22:15;;;;;;;6.75;3.70;;;;;;;0.31;62.56;99845.81;5052856;28;20029;-56
2022/11/03 04:23:59;;;;;;;6.15;4.30;;;;;;;0.22;62.86;99852.28;5040375;28;20420;-55
2022/11/03 04:26:26;;;;;;;4.97;3.40;;;;;;;0.18;62.53;99861.22;5032764;28;20033;-62
2022/11/03 04:28:52;;;;;;;3.53;2.92;;;;;;;-0.11;62.82;99818.41;5032749;28;20033;-61
2022/11/03 04:31:18;;;;;;;2.63;2.42;;;;;;;0.05;62.31;99859.06;5015347;28;20029;-60
2022/11/03 04:33:45;;;;;;;5.10;2.47;;;;;;;-0.02;62.79;99853.16;5032544;28;20380;-62
2022/11/03 04:36:18;;;;;;;2.80;1.83;;;;;;;0.28;62.24;99868.72;5032568;28;20044;-61
2022/11/03 04:38:44;;;;;;;2.85;2.58;;;;;;;0.06;62.23;99860.78;5052124;28;20126;-63
2022/11/03 04:41:15;;;;;;;2.28;2.08;;;;;;;0.00;63.00;99871.53;5050308;28;20398;-70
2022/11/03 04:43:41;;;;;;;2.13;1.92;;;;;;;0.02;63.15;99869.69;5051764;28;20077;-55
2022/11/03 04:46:10;;;;;;;2.58;2.00;;;;;;;0.05;62.89;99866.94;5052083;28;20091;-61
2022/11/03 04:48:36;;;;;;;5.00;2.30;;;;;;;-0.22;63.03;99824.06;5051766;28;20059;-62
2022/11/03 04:51:12;;;;;;;5.80;2.13;;;;;;;0.06;63.34;99867.78;5048021;28;20061;-63
2022/11/03 04:53:40;;;;;;;3.22;2.05;;;;;;;0.12;62.51;99864.94;5046625;28;20033;-63
2022/11/03 04:56:14;;;;;;;2.10;1.90;;;;;;;0.21;62.23;99866.38;5052397;28;20171;-62
2022/11/03 04:58:39;;;;;;;3.50;1.80;;;;;;;0.14;61.86;99856.06;5050614;28;20033;-62
2022/11/03 05:01:11;;;;;;;1.75;1.60;;;;;;;0.17;62.16;99859.50;5033545;28;20081;-63
2022/11/03 05:03:39;;;;;;;2.65;1.45;;;;;;;0.03;61.87;99849.47;5032285;28;20037;-62
2022/11/03 05:06:14;;;;;;;1.35;1.25;;;;;;;0.23;61.26;99862.78;5043299;28;20082;-61
2022/11/03 05:08:40;;;;;;;3.30;1.38;;;;;;;0.01;61.78;99861.84;5042455;28;20091;-56
2022/11/03 05:11:25;;;;;;;3.67;1.35;;;;;;;-0.02;62.53;99865.44;5051130;28;20371;-62
2022/11/03 05:13:51;;;;;;;1.77;1.65;;;;;;;-0.33;63.50;99850.75;5048566;28;20371;-63
2022/11/03 05:16:17;;;;;;;2.40;1.00;;;;;;;-0.23;63.42;99874.97;5050659;28;20032;-62
2022/11/03 05:18:47;;;;;;;2.80;1.52;;;;;;;-0.16;63.24;99872.06;5050387;28;20086;-63
2022/11/03 05:21:18;;;;;;;3.03;1.90;;;;;;;-0.24;63.47;99873.25;5050392;28;20029;-62
2022/11/03 05:23:48;;;;;;;3.45;1.70;;;;;;;-0.28;64.19;99867.22;5051319;28;20443;-62
2022/11/03 05:26:27;;;;;;;3.17;1.65;;;;;;;-0.12;63.71;99874.59;5051567;28;20052;-62
2022/11/03 05:29:03;;;;;;;4.78;1.80;;;;;;;-0.01;64.10;99869.78;5052420;28;20399;-61
2022/11/03 05:31:31;;;;;;;3.67;2.20;;;;;;;0.05;63.72;99877.47;5055320;28;20496;-63
2022/11/03 05:34:02;;;;;;;2.28;1.77;;;;;;;0.16;63.13;99870.94;5054482;28;20175;-71
2022/11/03 05:36:30;;;;;;;2.22;1.90;;;;;;;0.20;63.04;99868.16;5049675;28;20048;-64
2022/11/03 05:39:16;;;;;;;6.13;2.50;;;;;;;0.27;62.85;99869.63;5035779;28;20040;-61
2022/11/03 05:41:41;;;;;;;4.82;2.40;;;;;;;0.21;62.79;99869.00;5035076;28;20029;-61
2022/11/03 05:44:36;;;;;;;3.85;2.55;;;;;;;0.27;62.98;99866.16;5035065;28;20053;-62
2022/11/03 05:47:17;;;;;;;5.47;2.90;;;;;;;0.29;62.95;99869.59;5034215;28;20041;-61
2022/11/03 05:49:43;;;;;;;4.57;2.92;;;;;;;0.25;62.70;99868.00;5035228;28;20121;-63
2022/11/03 05:52:18;;;;;;;5.55;2.80;;;;;;;0.35;63.26;99879.00;5048376;28;20100;-61
2022/11/03 05:54:44;;;;;;;3.58;2.85;;;;;;;0.38;62.91;99871.88;5070572;28;20116;-63
2022/11/03 05:57:13;;;;;;;6.43;3.05;;;;;;;0.42;63.04;99878.72;5053605;28;20115;-64
2022/11/03 05:59:38;;;;;;;3.33;2.80;;;;;;;0.41;62.67;99873.53;5054026;28;20091;-62
2022/11/03 06:02:20;;;;;;;5.00;3.20;;;;;;;0.40;62.52;99875.31;5053890;28;20033;-62
2022/11/03 06:04:48;;;;;;;3.20;2.90;;;;;;;0.36;62.44;99878.97;5070440;28;20107;-61
2022/11/03 06:07:22;;;;;;;7.45;3.20;;;;;;;0.35;63.23;99882.53;5054290;28;20063;-62
2022/11/03 06:09:47;;;;;;;5.53;2.65;;;;;;;0.39;62.50;99885.91;5052611;28;20107;-63
2022/11/03 06:12:18;;;;;;;7.85;2.83;;;;;;;0.40;62.76;99877.09;5070296;28;20120;-61
2022/11/03 06:14:43;;;;;;;5.80;3.05;;;;;;;0.38;62.91;99871.03;5050762;28;20033;-63
2022/11/03 06:17:22;;;;;;;6.28;2.83;;;;;;;0.55;62.65;99883.53;5049986;28;20056;-64
2022/11/03 06:19:51;;;;;;;5.43;4.45;;;;;;;0.52;62.08;99881.03;5054705;28;20043;-63
2022/11/03 06:22:34;;;;;;;7.35;3.97;;;;;;;0.36;62.06;99852.63;5053417;28;20032;-63
2022/11/03 06:25:17;;;;;;;13.00;6.47;;;;;;;0.59;62.38;99882.50;5053581;28;20071;-66
2022/11/03 06:27:42;;;;;;;16.23;6.90;;;;;;;0.63;62.18;99885.91;5047776;28;20452;-64
2022/11/03 06:30:24;;;;;;;7.53;4.15;;;;;;;0.70;61.71;99884.72;5034679;28;20079;-61
2022/11/03 06:32:49;;;;;;;9.80;3.45;;;;;;;0.64;61.99;99898.16;5034808;28;20037;-65
2022/11/03 06:35:16;;;;;;;5.85;3.08;;;;;;;0.59;62.06;99879.88;5052679;28;20055;-62
2022/11/03 06:37:43;;;;;;;12.25;4.63;;;;;;;0.66;61.78;99873.44;5053142;28;20438;-63
2022/11/03 06:40:08;;;;;;;8.65;5.25;;;;;;;0.80;61.36;99883.44;5047761;28;20060;-61
2022/11/03 06:42:34;;;;;;;6.32;4.50;;;;;;;0.65;61.36;99853.28;5053388;28;20072;-63
2022/11/03 06:45:10;;;;;;;7.40;4.35;;;;;;;0.85;61.25;99894.69;5053679;28;20517;-55
2022/11/03 06:47:39;;;;;;;6.50;4.40;;;;;;;0.82;61.04;99892.16;5053899;28;20056;-58
2022/11/03 06:50:19;;;;;;;7.78;4.32;;;;;;;0.69;61.14;99854.88;5053923;28;20029;-57
2022/11/03 06:52:46;;;;;;;5.45;4.25;;;;;;;0.84;61.28;99887.69;5052546;28;20146;-66
2022/11/03 06:55:12;;;;;;;6.88;4.20;;;;;;;0.91;61.29;99890.09;5046980;28;20039;-63
2022/11/03 06:57:40;;;;;;;5.45;3.85;;;;;;;0.93;61.03;99891.72;5051761;28;20033;-62
2022/11/03 07:00:22;;;;;;;3.50;3.20;;;;;;;1.03;60.68;99892.22;5051635;28;20052;-62
2022/11/03 07:03:09;;;;;;;5.45;3.67;;;;;;;1.05;60.88;99900.06;5053054;28;20077;-63
2022/11/03 07:05:35;;;;;;;5.57;3.60;;;;;;;0.96;60.42;99894.22;5049514;28;20027;-63
2022/11/03 07:08:11;;;;;;;4.65;3.00;;;;;;;1.02;60.49;99897.56;5052009;28;20478;-63
2022/11/03 07:10:37;;;;;;;5.32;3.15;;;;;;;0.97;60.12;99889.84;5052007;28;20083;-62
2022/11/03 07:13:13;;;;;;;5.72;3.22;;;;;;;0.92;60.64;99860.16;5049749;28;20029;-66
2022/11/03 07:15:40;;;;;;;5.32;3.30;;;;;;;1.09;59.77;99884.09;5050814;28;20051;-61
2022/11/03 07:18:20;;;;;;;8.65;3.63;;;;;;;1.13;60.43;99885.66;5051815;28;20435;-69
2022/11/03 07:20:46;;;;;;;4.53;4.10;;;;;;;1.16;60.11;99891.72;5052842;28;20333;-63
2022/11/03 07:23:18;;;;;;;7.13;4.40;;;;;;;1.17;60.01;99893.44;5063517;28;20041;-66
2022/11/03 07:25:50;;;;;;;5.85;4.35;;;;;;;1.02;60.07;99863.28;5048283;28;20037;-64
2022/11/03 07:28:16;;;;;;;12.07;5.10;;;;;;;1.24;59.84;99898.41;5049352;28;20022;-66
2022/11/03 07:30:42;;;;;;;6.07;5.32;;;;;;;1.24;59.92;99893.16;5067705;28;20040;-65
2022/11/03 07:33:33;;;;;;;10.88;5.90;;;;;;;1.40;59.91;99898.63;5048756;28;20021;-65
2022/11/03 07:35:59;;;;;;;11.25;6.88;;;;;;;1.30;59.50;99897.28;5048328;28;20072;-63
2022/11/03 07:38:27;;;;;;;8.38;5.82;;;;;;;1.36;59.22;99904.09;5052350;28;20068;-63
2022/11/03 07:40:56;;;;;;;12.07;6.30;;;;;;;1.34;59.52;99906.81;5048343;28;20116;-64
2022/11/03 07:43:23;;;;;;;7.47;4.97;;;;;;;1.31;59.44;99901.63;5050681;28;20060;-65
2022/11/03 07:45:53;;;;;;;10.05;4.72;;;;;;;1.26;59.68;99896.56;5049170;28;20328;-66
2022/11/03 07:48:35;;;;;;;7.72;4.93;;;;;;;1.33;60.22;99906.88;5051563;28;20059;-65
2022/11/03 07:51:14;;;;;;;15.80;7.25;;;;;;;1.24;59.46;99887.00;5051762;28;20051;-68
2022/11/03 07:53:42;;;;;;;13.98;8.07;;;;;;;1.27;59.57;99908.84;5032035;28;20021;-66
2022/11/03 07:56:32;;;;;;;12.10;6.25;;;;;;;1.18;59.88;99887.25;5048146;28;20057;-66
2022/11/03 07:59:00;;;;;;;7.72;5.70;;;;;;;1.39;59.12;99910.13;5041214;28;20029;-64
2022/11/03 08:01:31;;;;;;;11.93;5.18;;;;;;;1.19;59.73;99910.91;5052412;28;20033;-65
2022/11/03 08:04:04;;;;;;;11.00;5.15;;;;;;;1.10;59.84;99913.94;5035603;28;20449;-65
2022/11/03 08:06:30;;;;;;;13.88;5.50;;;;;;;1.04;59.95;99901.84;5033834;28;20112;-65
2022/11/03 08:08:55;;;;;;;8.40;4.85;;;;;;;1.06;60.03;99909.69;5051659;28;20041;-68
2022/11/03 08:11:22;;;;;;;6.70;4.95;;;;;;;1.00;60.43;99901.13;5032805;28;20407;-68
2022/11/03 08:13:49;;;;;;;8.95;5.15;;;;;;;0.97;60.14;99901.25;5032912;28;20033;-65
2022/11/03 08:16:14;;;;;;;15.90;5.68;;;;;;;0.94;60.46;99903.97;5050677;28;20456;-65
2022/11/03 08:18:39;;;;;;;10.40;5.63;;;;;;;0.93;60.77;99894.34;5066592;28;20025;-65
2022/11/03 08:21:05;;;;;;;9.45;5.28;;;;;;;1.08;60.54;99903.44;5050143;28;20529;-66
2022/11/03 08:23:31;;;;;;;11.32;5.47;;;;;;;1.16;60.00;99900.50;5050023;28;20039;-66
2022/11/03 08:25:56;;;;;;;10.50;5.93;;;;;;;1.13;59.98;99876.88;5066596;28;20103;-66
2022/11/03 08:28:22;;;;;;;10.80;5.70;;;;;;;1.42;59.76;99901.19;5051060;28;20039;-65
2022/11/03 08:30:47;;;;;;;15.40;5.72;;;;;;;1.48;59.59;99900.97;5066497;28;20052;-65
2022/11/03 08:33:12;;;;;;;14.38;5.00;;;;;;;1.50;59.16;99899.13;5032623;28;20032;-65
2022/11/03 08:35:38;;;;;;;14.27;6.20;;;;;;;1.45;59.21;99887.91;5052408;28;20021;-65
2022/11/03 08:38:03;;;;;;;12.50;5.22;;;;;;;1.49;59.15;99892.13;5051490;28;20033;-64
2022/11/03 08:40:29;;;;;;;8.25;5.18;;;;;;;1.55;59.42;99891.84;5047223;28;20029;-66
2022/11/03 08:42:54;;;;;;;9.98;5.43;;;;;;;1.66;59.21;99891.41;5018143;28;20057;-68
2022/11/03 08:45:20;;;;;;;7.85;4.88;;;;;;;1.74;58.70;99892.84;5045574;28;20422;-65
2022/11/03 08:47:45;;;;;;;6.38;4.65;;;;;;;1.81;58.79;99892.53;5052289;28;20029;-63
2022/11/03 08:50:11;;;;;;;7.57;5.25;;;;;;;1.88;58.34;99889.63;5046066;28;20094;-63
2022/11/03 08:52:36;;;;;;;8.45;4.93;;;;;;;1.84;58.34;99895.03;5044801;28;20048;-66
2022/11/03 08:55:02;;;;;;;14.90;5.90;;;;;;;1.78;58.37;99891.78;5036301;28;20021;-65
2022/11/03 08:57:28;;;;;;;12.48;5.93;;;;;;;1.62;58.24;99859.91;5050645;28;20040;-66
2022/11/03 08:59:55;;;;;;;11.48;6.97;;;;;;;1.72;58.60;99890.28;5050540;28;20029;-65
2022/11/03 09:02:20;;;;;;;7.38;5.88;;;;;;;1.45;58.45;99858.88;5044936;28;20125;-65
2022/11/03 09:04:46;;;;;;;11.65;6.20;;;;;;;1.60;58.66;99885.53;5053306;28;20109;-63
2022/11/03 09:07:11;;;;;;;10.27;5.43;;;;;;;1.57;58.59;99866.25;5055790;28;20112;-63
2022/11/03 09:09:37;;;;;;;10.25;5.22;;;;;;;1.74;58.20;99891.09;5054541;28;20040;-68
2022/11/03 09:12:02;;;;;;;13.80;6.20;;;;;;;1.62;58.58;99891.59;5030733;28;20037;-66
2022/11/03 09:14:28;;;;;;;12.45;5.32;;;;;;;1.56;58.44;99883.03;5036775;28;20037;-65
2022/11/03 09:16:53;;;;;;;8.93;5.00;;;;;;;1.58;58.68;99886.44;5035709;28;20137;-63
2022/11/03 09:19:19;;;;;;;10.05;5.40;;;;;;;1.51;58.74;99881.50;5037806;28;20025;-68
2022/11/03 09:21:44;;;;;;;10.15;4.82;;;;;;;1.40;58.89;99872.25;5053749;28;20064;-70
2022/11/03 09:24:09;;;;;;;12.43;5.93;;;;;;;1.61;58.94;99887.25;5054682;28;20040;-66
2022/11/03 09:26:35;;;;;;;8.80;5.50;;;;;;;1.67;58.39;99895.75;5041637;28;20452;-63
2022/11/03 09:29:00;;;;;;;10.05;5.40;;;;;;;1.69;58.46;99896.56;5034368;28;20033;-66
2022/11/03 09:31:28;;;;;;;6.38;5.05;;;;;;;1.57;58.28;99889.16;5036651;28;20037;-64
2022/11/03 09:33:54;;;;;;;5.70;4.95;;;;;;;1.50;58.58;99892.97;5036636;28;20033;-64
2022/11/03 09:36:19;;;;;;;8.88;4.85;;;;;;;1.54;59.05;99890.16;5071607;28;20025;-64
2022/11/03 09:38:45;;;;;;;7.93;5.00;;;;;;;1.71;58.71;99893.84;5053641;28;20039;-68
2022/11/03 09:41:16;;;;;;;8.43;4.18;;;;;;;1.83;57.72;99893.31;5050474;28;20025;-66
2022/11/03 09:43:46;;;;;;;6.68;4.47;;;;;;;1.90;57.76;99893.03;5034269;28;20065;-64
2022/11/03 09:46:12;;;;;;;6.25;4.72;;;;;;;1.92;57.81;99891.19;5034159;28;20037;-67
2022/11/03 09:48:38;;;;;;;8.40;5.00;;;;;;;1.93;57.50;99895.53;5034621;28;20112;-64
2022/11/03 09:51:04;;;;;;;8.50;5.10;;;;;;;1.90;57.47;99895.69;5047061;28;20187;-65
2022/11/03 09:53:30;;;;;;;7.40;4.50;;;;;;;1.64;57.75;99868.63;5034739;28;20040;-65
2022/11/03 09:55:55;;;;;;;5.90;4.43;;;;;;;1.76;57.73;99898.91;5034993;28;20029;-66
2022/11/03 09:58:21;;;;;;;9.10;5.88;;;;;;;1.69;57.81;99887.78;5065385;28;20048;-65
2022/11/03 10:00:46;;;;;;;11.32;5.30;;;;;;;1.69;58.22;99898.34;5046609;28;20037;-64
2022/11/03 10:03:15;;;;;;;9.73;5.10;;;;;;;1.75;58.05;99891.94;5048158;28;20037;-67
2022/11/03 10:05:43;;;;;;;11.57;4.72;;;;;;;1.84;58.18;99895.03;5060534;28;20056;-64
2022/11/03 10:08:31;;;;;;;8.05;4.70;;;;;;;1.93;57.64;99885.84;5053764;28;20033;-64
2022/11/03 10:10:57;;;;;;;6.13;4.30;;;;;;;1.82;57.55;99883.69;5034824;28;20103;-64
2022/11/03 10:13:32;;;;;;;10.57;4.90;;;;;;;1.90;58.07;99879.84;5034269;28;20025;-64
2022/11/03 10:16:00;;;;;;;10.30;5.50;;;;;;;1.93;58.11;99884.97;5032788;28;20470;-64
2022/11/03 10:18:27;;;;;;;10.43;4.50;;;;;;;2.07;57.57;99885.25;5052821;28;20040;-63
2022/11/03 10:20:52;;;;;;;6.15;4.68;;;;;;;2.13;57.23;99887.59;5053313;28;20027;-63
2022/11/03 10:23:18;;;;;;;8.20;4.80;;;;;;;2.18;57.20;99891.84;5035521;28;20029;-64
2022/11/03 10:25:44;;;;;;;6.97;4.50;;;;;;;2.17;57.17;99887.47;5033688;28;20132;-63
2022/11/03 10:28:23;;;;;;;5.60;4.32;;;;;;;2.15;56.80;99883.09;5036234;28;20479;-68
2022/11/03 10:30:51;;;;;;;13.02;5.97;;;;;;;2.10;56.85;99879.81;5053990;28;20452;-65
2022/11/03 10:33:32;;;;;;;13.60;5.45;;;;;;;1.97;57.47;99852.25;5037421;28;20045;-65
2022/11/03 10:36:18;;;;;;;7.93;5.00;;;;;;;2.29;57.91;99881.63;5052976;28;20025;-65
2022/11/03 10:38:44;;;;;;;5.97;5.07;;;;;;;2.22;56.88;99886.34;5045629;28;20491;-64
2022/11/03 10:41:17;;;;;;;7.70;4.68;;;;;;;2.14;57.32;99884.03;5052489;28;20037;-65
2022/11/03 10:44:02;;;;;;;6.82;4.40;;;;;;;1.95;57.75;99872.59;5052611;28;20044;-65
2022/11/03 10:46:27;;;;;;;7.50;5.22;;;;;;;1.82;57.95;99869.63;5051182;28;20119;-64
2022/11/03 10:49:09;;;;;;;10.27;5.85;;;;;;;1.83;58.28;99879.28;5069536;28;20037;-65
2022/11/03 10:51:35;;;;;;;12.30;6.38;;;;;;;1.76;58.39;99891.88;5069630;28;20530;-64
2022/11/03 10:54:02;;;;;;;12.82;6.30;;;;;;;1.74;59.00;99885.81;5033310;28;20069;-66
2022/11/03 10:56:29;;;;;;;9.75;6.00;;;;;;;1.74;58.81;99882.28;5032531;28;20029;-64
2022/11/03 10:58:56;;;;;;;9.65;6.13;;;;;;;1.78;58.34;99882.09;5041721;28;20075;-63
2022/11/03 11:01:22;;;;;;;14.00;5.93;;;;;;;1.77;58.42;99876.88;5053967;28;20107;-65
2022/11/03 11:03:47;;;;;;;9.05;5.90;;;;;;;1.89;58.67;99875.47;5054038;28;20523;-68
2022/11/03 11:06:23;;;;;;;10.32;5.80;;;;;;;1.90;58.23;99853.44;5052348;28;20040;-69
2022/11/03 11:08:53;;;;;;;10.60;5.50;;;;;;;2.14;57.99;99877.91;5038351;28;20111;-65
2022/11/03 11:11:20;;;;;;;10.85;5.45;;;;;;;2.24;57.40;99879.19;5051404;28;20026;-66
2022/11/03 11:14:38;;;;;;;7.70;5.15;;;;;;;2.39;57.56;99879.44;5053473;28;20451;-66
2022/11/03 11:17:05;;;;;;;11.43;5.22;;;;;;;2.36;57.34;99879.59;5030765;28;20116;-66
2022/11/03 11:20:08;;;;;;;7.65;5.15;;;;;;;2.41;57.09;99874.94;5051767;28;20033;-62
2022/11/03 11:22:34;;;;;;;7.65;4.90;;;;;;;2.27;57.22;99873.78;5036962;28;20360;-63
2022/11/03 11:25:00;;;;;;;7.88;4.97;;;;;;;2.16;57.33;99876.06;5034068;28;20033;-70
2022/11/03 11:27:32;;;;;;;8.32;7.00;;;;;;;2.15;58.08;99880.47;5034400;28;20044;-67
2022/11/03 11:30:29;;;;;;;15.07;6.93;;;;;;;2.12;58.18;99885.88;5038659;28;20112;-65
2022/11/03 11:32:59;;;;;;;10.75;5.95;;;;;;;1.98;57.77;99889.16;5036678;28;20036;-64
2022/11/03 11:35:25;;;;;;;10.48;6.30;;;;;;;1.81;58.14;99884.59;5067703;28;20041;-69
2022/11/03 11:37:51;;;;;;;8.93;6.25;;;;;;;1.75;58.67;99887.53;5070852;28;20051;-64
2022/11/03 11:40:23;;;;;;;12.98;5.95;;;;;;;1.77;58.98;99876.88;5051547;28;20115;-67
2022/11/03 11:43:09;;;;;;;12.45;6.15;;;;;;;1.73;59.07;99876.16;5051830;28;20477;-68
2022/11/03 11:46:12;;;;;;;9.05;5.90;;;;;;;1.72;59.32;99879.75;5038629;28;20059;-72
2022/11/03 11:48:38;;;;;;;7.95;6.07;;;;;;;1.71;59.01;99891.22;5048736;28;20048;-65
2022/11/03 11:51:08;;;;;;;11.57;6.40;;;;;;;1.76;59.14;99880.44;5035624;28;20033;-64
2022/11/03 11:53:39;;;;;;;11.73;6.30;;;;;;;1.67;59.41;99885.19;5045010;28;20029;-62
2022/11/03 11:56:09;;;;;;;12.70;6.82;;;;;;;1.63;59.19;99885.38;5051307;28;20032;-63
2022/11/03 11:58:55;;;;;;;11.80;6.07;;;;;;;1.65;59.88;99872.97;5043785;28;20098;-65
2022/11/03 12:01:36;;;;;;;11.48;6.68;;;;;;;1.73;59.62;99886.72;5049128;28;20171;-65
2022/11/03 12:04:06;;;;;;;9.77;6.43;;;;;;;1.70;59.57;99892.97;5052377;28;20100;-64
2022/11/03 12:06:40;;;;;;;8.95;6.35;;;;;;;1.70;59.25;99876.31;5046071;28;20037;-65
2022/11/03 12:09:05;;;;;;;12.02;6.57;;;;;;;1.71;59.66;99881.50;5032572;28;20029;-64